Time;durP1;ratioP1;P1;durP2;ratioP2;P2;SDS_P1;SDS_P2;PMS_P1;PMS_P2;Temp;Humidity;BMP_temperature;BMP_pressure;BME280_temperature;BME280_humidity;BME280_pressure;Samples;Min_cycle;Max_cycle;Signal;HPM_P1;HPM_P2
2023/10/25 00:00:45;;;;;;;9.93;5.53;;;10.40;99.90;;;;;;5053928;28;20048;-80
2023/10/25 00:03:12;;;;;;;9.55;4.60;;;10.30;99.90;;;;;;5067942;28;20036;-80
2023/10/25 00:05:38;;;;;;;10.80;4.40;;;10.40;99.90;;;;;;5071534;28;20047;-80
2023/10/25 00:08:03;;;;;;;9.70;4.28;;;10.30;99.90;;;;;;5054922;28;20041;-80
2023/10/25 00:10:29;;;;;;;12.23;4.55;;;10.30;99.90;;;;;;5068986;28;20036;-80
2023/10/25 00:12:55;;;;;;;10.70;4.60;;;10.40;99.90;;;;;;5041734;28;20036;-81
2023/10/25 00:15:21;;;;;;;9.10;4.50;;;10.20;99.90;;;;;;5054975;28;20040;-80
2023/10/25 00:17:48;;;;;;;9.77;4.45;;;10.30;99.90;;;;;;5071362;28;20044;-80
2023/10/25 00:20:13;;;;;;;10.80;5.13;;;10.20;99.90;;;;;;5053875;28;20119;-80
2023/10/25 00:22:39;;;;;;;9.55;4.70;;;10.20;99.90;;;;;;5062556;28;20033;-80
2023/10/25 00:25:05;;;;;;;9.32;4.43;;;10.20;99.90;;;;;;5055376;28;20091;-80
2023/10/25 00:27:30;;;;;;;9.90;4.00;;;10.20;99.90;;;;;;5038790;28;20037;-80
2023/10/25 00:29:56;;;;;;;9.38;4.63;;;10.20;99.90;;;;;;5071954;28;20044;-80
2023/10/25 00:32:21;;;;;;;12.32;4.85;;;10.20;99.90;;;;;;5073467;28;20102;-80
2023/10/25 00:34:47;;;;;;;10.60;4.68;;;10.20;99.90;;;;;;5074911;28;20052;-80
2023/10/25 00:37:12;;;;;;;10.35;4.63;;;10.20;99.90;;;;;;5052962;28;20041;-80
2023/10/25 00:39:38;;;;;;;9.38;4.88;;;10.20;99.90;;;;;;5068149;28;20047;-80
2023/10/25 00:42:04;;;;;;;11.18;4.43;;;10.10;99.90;;;;;;5053803;28;20044;-80
2023/10/25 00:44:29;;;;;;;9.85;4.47;;;10.10;99.90;;;;;;5057081;28;20029;-81
2023/10/25 00:46:55;;;;;;;10.77;4.25;;;10.10;99.90;;;;;;5056628;28;20106;-80
2023/10/25 00:49:21;;;;;;;9.05;4.13;;;10.10;99.90;;;;;;5051449;28;20032;-80
2023/10/25 00:51:46;;;;;;;9.65;4.20;;;10.10;99.90;;;;;;5079933;28;20044;-81
2023/10/25 00:54:13;;;;;;;9.70;4.30;;;10.00;99.90;;;;;;5070995;28;20041;-80
2023/10/25 00:56:41;;;;;;;10.38;4.22;;;10.00;99.90;;;;;;5056971;28;20052;-80
2023/10/25 00:59:06;;;;;;;11.05;4.10;;;9.90;99.90;;;;;;5076539;28;20071;-80
2023/10/25 01:01:33;;;;;;;8.88;3.83;;;10.00;99.90;;;;;;5083372;28;20117;-80
2023/10/25 01:03:58;;;;;;;9.48;3.97;;;10.00;99.90;;;;;;5063916;28;20133;-80
2023/10/25 01:06:24;;;;;;;8.13;4.05;;;9.90;99.90;;;;;;5060088;28;20067;-80
2023/10/25 01:08:51;;;;;;;6.85;3.60;;;10.00;99.90;;;;;;5078078;28;20526;-80
2023/10/25 01:11:17;;;;;;;9.23;4.03;;;9.90;99.90;;;;;;5076380;28;20507;-80
2023/10/25 01:13:42;;;;;;;8.73;3.67;;;9.90;99.90;;;;;;5074558;28;20046;-80
2023/10/25 01:16:08;;;;;;;11.30;4.00;;;9.90;99.90;;;;;;5077476;28;20131;-79
2023/10/25 01:18:33;;;;;;;9.63;4.00;;;9.90;99.90;;;;;;5076383;28;20446;-79
2023/10/25 01:20:59;;;;;;;7.10;3.80;;;9.90;99.90;;;;;;5060885;28;20119;-79
2023/10/25 01:23:24;;;;;;;10.40;4.15;;;9.90;99.90;;;;;;5068198;28;20031;-79
2023/10/25 01:25:50;;;;;;;8.00;4.03;;;9.90;99.90;;;;;;5064096;28;20031;-79
2023/10/25 01:28:16;;;;;;;10.68;3.63;;;9.80;99.90;;;;;;5084319;28;20523;-80
2023/10/25 01:30:42;;;;;;;9.50;3.70;;;9.90;99.90;;;;;;5085711;28;20036;-79
2023/10/25 01:33:08;;;;;;;9.27;3.53;;;9.90;99.90;;;;;;5057111;28;20070;-80
2023/10/25 01:35:34;;;;;;;8.15;3.63;;;9.90;99.90;;;;;;5066095;28;20047;-80
2023/10/25 01:38:01;;;;;;;9.35;4.15;;;9.80;99.90;;;;;;5059456;28;20097;-80
2023/10/25 01:40:26;;;;;;;8.15;4.10;;;9.80;99.90;;;;;;5083651;28;20040;-80
2023/10/25 01:42:54;;;;;;;10.43;4.13;;;9.80;99.90;;;;;;5065258;28;20085;-80
2023/10/25 01:45:22;;;;;;;8.02;4.00;;;9.80;99.90;;;;;;5068140;28;20064;-80
2023/10/25 01:47:47;;;;;;;8.98;4.00;;;9.80;99.90;;;;;;5060440;28;20043;-80
2023/10/25 01:50:13;;;;;;;7.80;3.65;;;9.80;99.90;;;;;;5059476;28;20497;-80
2023/10/25 01:52:38;;;;;;;8.38;3.53;;;9.90;99.90;;;;;;5110826;28;20068;-80
2023/10/25 01:55:04;;;;;;;11.50;3.70;;;9.80;99.90;;;;;;5062141;28;20036;-80
2023/10/25 01:57:30;;;;;;;11.65;4.32;;;9.80;99.90;;;;;;5075398;28;20044;-80
2023/10/25 01:59:55;;;;;;;10.90;4.30;;;9.80;99.90;;;;;;5076272;28;20101;-80
2023/10/25 02:02:21;;;;;;;9.02;3.72;;;9.80;99.90;;;;;;5086500;28;20397;-80
2023/10/25 02:04:46;;;;;;;9.85;4.10;;;9.80;99.90;;;;;;5076662;28;20040;-80
2023/10/25 02:07:12;;;;;;;13.35;4.50;;;9.80;99.90;;;;;;5062011;28;20047;-80
2023/10/25 02:09:38;;;;;;;11.02;4.43;;;9.80;99.90;;;;;;5076593;28;20028;-80
2023/10/25 02:12:04;;;;;;;10.43;4.55;;;9.70;99.90;;;;;;5075384;28;20040;-80
2023/10/25 02:14:31;;;;;;;9.50;4.22;;;9.70;99.90;;;;;;5076353;28;20044;-80
2023/10/25 02:16:57;;;;;;;12.30;4.50;;;9.70;99.90;;;;;;5109431;28;20044;-80
2023/10/25 02:19:22;;;;;;;10.85;4.82;;;9.70;99.90;;;;;;5071209;28;20039;-80
2023/10/25 02:21:48;;;;;;;9.35;4.10;;;9.70;99.90;;;;;;5075299;28;20503;-80
2023/10/25 02:24:17;;;;;;;7.47;3.85;;;9.70;99.90;;;;;;5059942;28;20059;-80
2023/10/25 02:26:43;;;;;;;10.73;4.32;;;9.70;99.90;;;;;;5109438;28;20066;-80
2023/10/25 02:29:08;;;;;;;10.57;5.10;;;9.70;99.90;;;;;;5075314;28;20028;-80
2023/10/25 02:31:35;;;;;;;11.95;4.60;;;9.70;99.90;;;;;;5074698;28;20048;-80
2023/10/25 02:34:00;;;;;;;11.27;5.07;;;9.70;99.90;;;;;;5076105;28;20426;-80
2023/10/25 02:36:26;;;;;;;10.82;5.05;;;9.70;99.90;;;;;;5047353;28;20098;-80
2023/10/25 02:38:52;;;;;;;9.15;4.97;;;9.60;99.90;;;;;;5073889;28;20040;-80
2023/10/25 02:41:17;;;;;;;9.13;4.60;;;9.60;99.90;;;;;;5080895;28;20048;-80
2023/10/25 02:43:43;;;;;;;9.13;4.60;;;9.60;99.90;;;;;;5073438;28;20034;-80
2023/10/25 02:46:09;;;;;;;10.32;4.93;;;9.60;99.90;;;;;;5063369;28;20508;-80
2023/10/25 02:48:36;;;;;;;11.27;4.93;;;9.60;99.90;;;;;;5045380;28;20039;-80
2023/10/25 02:51:03;;;;;;;10.00;5.03;;;9.60;99.90;;;;;;5059155;28;20093;-79
2023/10/25 02:53:29;;;;;;;7.68;4.70;;;9.60;99.90;;;;;;5053051;28;20040;-79
2023/10/25 02:56:02;;;;;;;9.35;5.20;;;9.50;99.90;;;;;;5089983;28;20042;-79
2023/10/25 02:58:28;;;;;;;8.82;4.68;;;9.50;99.90;;;;;;5092424;28;20087;-79
2023/10/25 03:00:53;;;;;;;10.27;5.40;;;9.50;99.90;;;;;;5076119;28;20459;-79
2023/10/25 03:03:19;;;;;;;14.25;5.57;;;9.50;99.90;;;;;;5058194;28;20060;-79
2023/10/25 03:05:44;;;;;;;9.10;5.47;;;9.50;99.90;;;;;;5075696;28;20048;-79
2023/10/25 03:08:10;;;;;;;11.23;5.80;;;9.50;99.90;;;;;;5075626;28;20036;-80
2023/10/25 03:10:36;;;;;;;9.90;5.43;;;9.50;99.90;;;;;;5058430;28;20071;-80
2023/10/25 03:13:02;;;;;;;10.88;5.82;;;9.50;99.90;;;;;;5058975;28;20044;-80
2023/10/25 03:15:28;;;;;;;11.02;5.47;;;9.60;99.90;;;;;;5106929;28;20089;-80
2023/10/25 03:17:54;;;;;;;10.45;5.95;;;9.40;99.90;;;;;;5075707;28;20051;-80
2023/10/25 03:20:20;;;;;;;10.35;6.10;;;9.50;99.90;;;;;;5089649;28;20040;-80
2023/10/25 03:22:45;;;;;;;13.60;6.00;;;9.50;99.90;;;;;;5058727;28;20047;-80
2023/10/25 03:25:11;;;;;;;12.07;5.60;;;9.50;99.90;;;;;;5057683;28;20067;-80
2023/10/25 03:27:37;;;;;;;10.57;5.60;;;9.40;99.90;;;;;;5060267;28;20093;-80
2023/10/25 03:30:03;;;;;;;12.27;5.63;;;9.50;99.90;;;;;;5075497;28;20032;-80
2023/10/25 03:32:29;;;;;;;13.98;6.07;;;9.40;99.90;;;;;;5062823;28;20036;-80
2023/10/25 03:34:54;;;;;;;11.95;5.72;;;9.40;99.90;;;;;;5054905;28;20051;-80
2023/10/25 03:37:20;;;;;;;9.38;5.47;;;9.50;99.90;;;;;;5072173;28;20480;-80
2023/10/25 03:39:46;;;;;;;10.25;5.60;;;9.50;99.90;;;;;;5063056;28;20085;-80
2023/10/25 03:42:11;;;;;;;14.63;5.10;;;9.50;99.90;;;;;;5063755;28;20059;-80
2023/10/25 03:44:37;;;;;;;11.40;5.25;;;9.50;99.90;;;;;;5071805;28;20032;-80
2023/10/25 03:47:03;;;;;;;12.85;5.30;;;9.40;99.90;;;;;;5068425;28;20070;-80
2023/10/25 03:49:29;;;;;;;9.55;4.55;;;9.40;99.90;;;;;;5086998;28;20040;-80
2023/10/25 03:51:55;;;;;;;9.35;5.13;;;9.40;99.90;;;;;;5074190;28;20101;-80
2023/10/25 03:54:20;;;;;;;10.32;5.00;;;9.40;99.90;;;;;;5090481;28;20389;-80
2023/10/25 03:56:46;;;;;;;8.73;5.28;;;9.40;99.90;;;;;;5074778;28;20063;-80
2023/10/25 03:59:12;;;;;;;8.68;5.03;;;9.40;99.90;;;;;;5056370;28;20040;-80
2023/10/25 04:01:41;;;;;;;8.95;5.00;;;9.40;99.90;;;;;;5078328;28;20040;-80
2023/10/25 04:04:06;;;;;;;11.00;5.22;;;9.40;99.90;;;;;;5054102;28;20081;-80
2023/10/25 04:06:32;;;;;;;8.70;4.63;;;9.40;99.90;;;;;;5092490;28;20041;-80
2023/10/25 04:08:58;;;;;;;11.32;5.60;;;9.30;99.90;;;;;;5072866;28;20079;-80
2023/10/25 04:11:24;;;;;;;8.45;4.80;;;9.30;99.90;;;;;;5094091;28;20040;-80
2023/10/25 04:13:49;;;;;;;9.50;4.78;;;9.30;99.90;;;;;;5061688;28;20496;-80
2023/10/25 04:16:15;;;;;;;8.50;4.20;;;9.30;99.90;;;;;;5060848;28;20051;-80
2023/10/25 04:18:41;;;;;;;9.43;4.75;;;9.30;99.90;;;;;;5077770;28;20044;-80
2023/10/25 04:21:12;;;;;;;13.20;4.97;;;9.30;99.90;;;;;;5063156;28;20072;-80
2023/10/25 04:23:38;;;;;;;8.95;4.90;;;9.30;99.90;;;;;;5061182;28;20036;-80
2023/10/25 04:26:14;;;;;;;9.63;4.97;;;9.30;99.90;;;;;;5059416;28;20058;-80
2023/10/25 04:28:42;;;;;;;9.18;5.10;;;9.20;99.90;;;;;;5060191;28;20031;-80
2023/10/25 04:31:11;;;;;;;10.75;4.53;;;9.20;99.90;;;;;;5077161;28;20031;-80
2023/10/25 04:33:37;;;;;;;12.45;5.40;;;9.20;99.90;;;;;;5060755;28;20415;-80
2023/10/25 04:36:04;;;;;;;9.93;4.90;;;9.20;99.90;;;;;;5076386;28;20036;-80
2023/10/25 04:38:30;;;;;;;10.23;5.47;;;9.20;99.90;;;;;;5091094;28;20044;-80
2023/10/25 04:40:56;;;;;;;8.60;4.60;;;9.20;99.90;;;;;;5076310;28;20044;-81
2023/10/25 04:43:22;;;;;;;11.10;5.25;;;9.20;99.90;;;;;;5062424;28;20392;-80
2023/10/25 04:45:48;;;;;;;10.98;4.97;;;9.20;99.90;;;;;;5071725;28;20043;-80
2023/10/25 04:48:14;;;;;;;11.52;5.00;;;9.20;99.90;;;;;;5077892;28;20036;-80
2023/10/25 04:50:40;;;;;;;9.55;4.57;;;9.10;99.90;;;;;;5059767;28;20032;-80
2023/10/25 04:53:06;;;;;;;10.27;5.38;;;9.20;99.90;;;;;;5076580;28;20387;-80
2023/10/25 04:55:34;;;;;;;11.18;4.93;;;9.10;99.90;;;;;;5060733;28;20044;-80
2023/10/25 04:58:00;;;;;;;10.15;4.95;;;9.10;99.90;;;;;;5057414;28;20060;-80
2023/10/25 05:00:27;;;;;;;8.93;4.47;;;9.10;99.90;;;;;;5071836;28;20040;-80
2023/10/25 05:02:54;;;;;;;10.38;5.40;;;9.10;99.90;;;;;;5110595;28;20499;-80
2023/10/25 05:05:20;;;;;;;10.48;4.78;;;9.10;99.90;;;;;;5048390;28;20150;-80
2023/10/25 05:07:46;;;;;;;9.32;5.10;;;9.10;99.90;;;;;;5064855;28;20522;-80
2023/10/25 05:10:12;;;;;;;9.45;5.03;;;9.10;99.90;;;;;;5087190;28;20477;-80
2023/10/25 05:12:46;;;;;;;12.43;4.93;;;9.10;99.90;;;;;;5060182;28;20032;-80
2023/10/25 05:15:14;;;;;;;10.82;4.82;;;9.10;99.90;;;;;;5069393;28;20036;-80
2023/10/25 05:17:43;;;;;;;10.68;5.03;;;9.10;99.90;;;;;;5062293;28;20036;-80
2023/10/25 05:20:09;;;;;;;7.57;4.65;;;9.00;99.90;;;;;;5059341;28;20075;-80
2023/10/25 05:22:38;;;;;;;9.25;4.75;;;9.10;99.90;;;;;;5058842;28;20488;-80
2023/10/25 05:25:05;;;;;;;11.35;4.88;;;9.00;99.90;;;;;;5076603;28;20039;-80
2023/10/25 05:27:35;;;;;;;10.07;4.93;;;9.00;99.90;;;;;;5060228;28;20071;-80
2023/10/25 05:30:05;;;;;;;11.57;5.25;;;9.00;99.90;;;;;;5058890;28;20036;-81
2023/10/25 05:32:32;;;;;;;11.82;5.47;;;9.00;99.90;;;;;;5058452;28;20093;-80
2023/10/25 05:34:59;;;;;;;11.48;5.40;;;8.90;99.90;;;;;;5060625;28;20510;-80
2023/10/25 05:37:25;;;;;;;10.07;4.93;;;8.90;99.90;;;;;;5075132;28;20070;-80
2023/10/25 05:39:51;;;;;;;10.00;4.95;;;8.90;99.90;;;;;;5075701;28;20047;-80
2023/10/25 05:42:19;;;;;;;11.15;5.05;;;8.90;99.90;;;;;;5058523;28;20048;-80
2023/10/25 05:44:51;;;;;;;10.02;5.63;;;8.90;99.90;;;;;;5072284;28;20403;-80
2023/10/25 05:47:17;;;;;;;9.10;5.22;;;8.90;99.90;;;;;;5075237;28;20508;-80
2023/10/25 05:49:42;;;;;;;10.63;5.05;;;8.90;99.90;;;;;;5089265;28;20051;-80
2023/10/25 05:52:10;;;;;;;9.45;4.60;;;8.90;99.90;;;;;;5110066;28;20036;-80
2023/10/25 05:54:36;;;;;;;10.20;4.78;;;8.90;99.90;;;;;;5065568;28;20051;-81
2023/10/25 05:57:04;;;;;;;9.63;4.22;;;8.90;99.90;;;;;;5059205;28;20052;-80
2023/10/25 05:59:30;;;;;;;10.10;5.28;;;8.90;99.90;;;;;;5075120;28;20055;-80
2023/10/25 06:02:22;;;;;;;10.60;4.30;;;8.90;99.90;;;;;;5092451;28;20040;-81
2023/10/25 06:04:49;;;;;;;9.10;3.92;;;9.00;99.90;;;;;;5076992;28;20087;-80
2023/10/25 06:07:15;;;;;;;8.05;3.72;;;9.00;99.90;;;;;;5089549;28;20045;-80
2023/10/25 06:09:41;;;;;;;9.20;4.43;;;9.10;99.90;;;;;;5073614;28;20397;-81
2023/10/25 06:12:08;;;;;;;8.45;4.00;;;9.10;99.90;;;;;;5087530;28;20036;-80
2023/10/25 06:14:34;;;;;;;10.55;4.30;;;9.10;99.90;;;;;;5058012;28;20039;-80
2023/10/25 06:17:00;;;;;;;12.98;4.35;;;9.00;99.90;;;;;;5075336;28;20115;-81
2023/10/25 06:19:27;;;;;;;7.38;4.47;;;9.10;99.90;;;;;;5075434;28;20377;-80
2023/10/25 06:21:54;;;;;;;8.63;4.25;;;9.00;99.90;;;;;;5065578;28;20381;-80
2023/10/25 06:24:19;;;;;;;10.40;4.43;;;9.00;99.90;;;;;;5058147;28;20119;-80
2023/10/25 06:26:45;;;;;;;8.93;4.40;;;9.00;99.90;;;;;;5056391;28;20123;-80
2023/10/25 06:29:11;;;;;;;11.40;4.50;;;8.90;99.90;;;;;;5092951;28;20047;-80
2023/10/25 06:31:36;;;;;;;10.88;4.22;;;8.80;99.90;;;;;;5058471;28;20040;-81
2023/10/25 06:34:02;;;;;;;9.80;4.57;;;8.90;99.90;;;;;;5055270;28;20059;-80
2023/10/25 06:36:28;;;;;;;8.82;5.03;;;8.80;99.90;;;;;;5056382;28;20071;-80
2023/10/25 06:38:54;;;;;;;8.38;4.25;;;8.80;99.90;;;;;;5055895;28;20041;-80
2023/10/25 06:41:24;;;;;;;10.35;4.60;;;8.70;99.90;;;;;;5055640;28;20037;-81
2023/10/25 06:43:50;;;;;;;8.82;4.88;;;8.80;99.90;;;;;;5065699;28;20036;-80
2023/10/25 06:46:16;;;;;;;9.30;4.60;;;8.80;99.90;;;;;;5074886;28;20047;-80
2023/10/25 06:48:42;;;;;;;9.13;4.78;;;8.70;99.90;;;;;;5075776;28;20038;-80
2023/10/25 06:51:09;;;;;;;7.45;3.17;;;8.70;99.90;;;;;;5059433;28;20134;-78
2023/10/25 06:53:38;;;;;;;9.70;4.07;;;8.80;99.90;;;;;;5057924;28;20048;-84
2023/10/25 06:56:05;;;;;;;8.82;4.53;;;8.90;99.90;;;;;;5058395;28;20032;-79
2023/10/25 06:58:31;;;;;;;6.50;3.55;;;9.00;99.90;;;;;;5058252;28;20461;-79
2023/10/25 07:00:57;;;;;;;10.27;4.60;;;9.00;99.90;;;;;;5059134;28;20066;-79
2023/10/25 07:03:34;;;;;;;10.40;5.35;;;9.10;99.90;;;;;;5055041;28;20060;-79
2023/10/25 07:06:01;;;;;;;8.40;4.88;;;9.00;99.90;;;;;;5075375;28;20119;-79
2023/10/25 07:08:27;;;;;;;8.80;5.13;;;8.90;99.90;;;;;;5075024;28;20083;-79
2023/10/25 07:10:54;;;;;;;8.63;4.60;;;8.90;99.90;;;;;;5075851;28;20054;-79
2023/10/25 07:13:19;;;;;;;7.63;4.55;;;8.90;99.90;;;;;;5057932;28;20040;-79
2023/10/25 07:15:45;;;;;;;11.80;5.47;;;9.00;99.90;;;;;;5056130;28;20048;-80
2023/10/25 07:18:11;;;;;;;12.27;5.40;;;9.00;99.90;;;;;;5055347;28;20060;-79
2023/10/25 07:20:36;;;;;;;10.18;5.35;;;8.90;99.90;;;;;;5055463;28;20390;-80
2023/10/25 07:23:04;;;;;;;13.13;4.93;;;8.90;99.90;;;;;;5072148;28;20055;-79
2023/10/25 07:25:30;;;;;;;10.57;5.00;;;9.00;99.90;;;;;;5071961;28;20520;-79
2023/10/25 07:27:56;;;;;;;9.95;5.03;;;8.90;99.90;;;;;;5043939;28;20036;-79
2023/10/25 07:30:22;;;;;;;8.98;4.57;;;8.90;99.90;;;;;;5074906;28;20043;-79
2023/10/25 07:32:47;;;;;;;10.13;5.00;;;8.90;99.90;;;;;;5070557;28;20043;-79
2023/10/25 07:35:13;;;;;;;11.80;5.00;;;8.90;99.90;;;;;;5068582;28;20039;-79
2023/10/25 07:37:38;;;;;;;9.90;4.85;;;8.90;99.90;;;;;;5074508;28;20101;-79
2023/10/25 07:40:05;;;;;;;10.30;4.53;;;8.90;99.90;;;;;;5057872;28;20082;-79
2023/10/25 07:42:31;;;;;;;8.48;4.22;;;8.90;99.90;;;;;;5056706;28;20040;-79
2023/10/25 07:44:57;;;;;;;10.82;5.07;;;8.90;99.90;;;;;;5073821;28;20093;-79
2023/10/25 07:47:23;;;;;;;9.50;4.55;;;8.90;99.90;;;;;;5075164;28;20040;-79
2023/10/25 07:49:49;;;;;;;9.75;4.65;;;9.00;99.90;;;;;;5058535;28;20388;-79
2023/10/25 07:52:16;;;;;;;10.55;5.57;;;9.00;99.90;;;;;;5073186;28;20036;-80
2023/10/25 07:54:42;;;;;;;10.38;5.03;;;9.00;99.90;;;;;;5072510;28;20090;-79
2023/10/25 07:57:07;;;;;;;9.30;4.68;;;9.00;99.90;;;;;;5054908;28;20056;-79
2023/10/25 07:59:33;;;;;;;11.30;4.97;;;9.00;99.90;;;;;;5054830;28;20041;-79
2023/10/25 08:01:58;;;;;;;10.15;5.07;;;9.00;99.90;;;;;;5054968;28;20386;-79
2023/10/25 08:04:24;;;;;;;8.98;4.70;;;9.10;99.90;;;;;;5057834;28;20484;-79
2023/10/25 08:06:50;;;;;;;9.23;4.57;;;9.00;99.90;;;;;;5073528;28;20047;-79
2023/10/25 08:09:16;;;;;;;9.40;5.20;;;9.10;99.90;;;;;;5091618;28;20408;-79
2023/10/25 08:11:41;;;;;;;11.00;4.82;;;9.10;99.90;;;;;;5091763;28;20071;-79
2023/10/25 08:14:08;;;;;;;10.70;4.40;;;9.10;99.90;;;;;;5080586;28;20043;-79
2023/10/25 08:16:38;;;;;;;11.10;5.45;;;9.20;99.90;;;;;;5052292;28;20048;-79
2023/10/25 08:19:04;;;;;;;9.43;4.25;;;9.20;99.90;;;;;;5038193;28;20044;-79
2023/10/25 08:21:30;;;;;;;12.10;4.57;;;9.20;99.90;;;;;;5060303;28;20159;-79
2023/10/25 08:23:56;;;;;;;9.30;4.68;;;9.20;99.90;;;;;;5057072;28;20509;-79
2023/10/25 08:26:25;;;;;;;7.65;4.93;;;9.30;99.90;;;;;;5054235;28;20037;-79
2023/10/25 08:28:51;;;;;;;10.52;4.65;;;9.20;99.90;;;;;;5105060;28;20056;-79
2023/10/25 08:31:18;;;;;;;10.73;4.50;;;9.30;99.90;;;;;;5071297;28;20048;-79
2023/10/25 08:33:44;;;;;;;9.75;4.60;;;9.40;99.90;;;;;;5106052;28;20044;-79
2023/10/25 08:36:10;;;;;;;7.72;4.50;;;9.40;99.90;;;;;;5068819;28;20068;-79
2023/10/25 08:38:36;;;;;;;10.30;4.68;;;9.60;99.90;;;;;;5071507;28;20069;-80
2023/10/25 08:41:02;;;;;;;9.43;3.63;;;9.60;99.90;;;;;;5054560;28;20036;-79
2023/10/25 08:43:28;;;;;;;8.85;4.65;;;9.60;99.90;;;;;;5056000;28;20036;-79
2023/10/25 08:45:56;;;;;;;10.95;4.43;;;9.70;99.90;;;;;;5059466;28;20036;-79
2023/10/25 08:48:23;;;;;;;10.27;4.15;;;9.70;99.90;;;;;;5108687;28;20036;-79
2023/10/25 08:50:50;;;;;;;9.93;4.18;;;9.80;99.90;;;;;;5058000;28;20492;-79
2023/10/25 08:53:26;;;;;;;10.43;4.40;;;9.80;99.90;;;;;;5076569;28;20456;-79
2023/10/25 08:55:53;;;;;;;10.38;4.72;;;9.90;99.90;;;;;;5075893;28;20040;-79
2023/10/25 08:58:19;;;;;;;11.13;4.78;;;9.80;99.90;;;;;;5077729;28;20056;-79
2023/10/25 09:00:49;;;;;;;10.40;4.55;;;9.80;99.90;;;;;;5056994;28;20044;-79
2023/10/25 09:03:30;;;;;;;10.02;4.70;;;9.80;99.90;;;;;;5074570;28;20040;-79
2023/10/25 09:05:57;;;;;;;10.50;5.15;;;9.90;99.90;;;;;;5109805;28;20492;-79
2023/10/25 09:08:24;;;;;;;6.88;3.03;;;9.90;99.90;;;;;;5087780;28;20559;-80
2023/10/25 09:11:08;;;;;;;12.73;5.50;;;10.00;99.90;;;;;;5060953;28;20036;-79
2023/10/25 09:13:41;;;;;;;9.80;5.25;;;10.00;99.90;;;;;;5061044;28;20040;-79
2023/10/25 09:16:07;;;;;;;8.70;4.75;;;10.10;99.90;;;;;;5066439;28;20087;-80
2023/10/25 09:18:36;;;;;;;13.05;5.07;;;10.00;99.90;;;;;;5049664;28;20119;-80
2023/10/25 09:21:02;;;;;;;11.13;4.97;;;10.00;99.90;;;;;;5058682;28;20032;-79
2023/10/25 09:23:28;;;;;;;9.20;5.32;;;10.00;99.90;;;;;;5077414;28;20047;-79
2023/10/25 09:26:00;;;;;;;8.98;4.55;;;10.10;99.90;;;;;;5060825;28;20123;-79
2023/10/25 09:28:28;;;;;;;7.93;4.45;;;10.10;99.90;;;;;;5075936;28;20077;-79
2023/10/25 09:30:58;;;;;;;9.68;5.10;;;10.20;99.90;;;;;;5066595;28;20090;-79
2023/10/25 09:33:27;;;;;;;9.68;4.85;;;10.20;99.90;;;;;;5040949;28;20044;-80
2023/10/25 09:35:54;;;;;;;10.65;5.00;;;10.20;99.90;;;;;;5059117;28;20041;-79
2023/10/25 09:38:19;;;;;;;13.02;5.03;;;10.20;99.90;;;;;;5059153;28;20075;-79
2023/10/25 09:40:46;;;;;;;14.60;5.35;;;10.30;99.90;;;;;;5078719;28;20076;-79
2023/10/25 09:43:19;;;;;;;9.00;5.25;;;10.30;99.90;;;;;;5079586;28;20507;-79
2023/10/25 09:45:53;;;;;;;13.05;5.65;;;10.40;99.90;;;;;;5060422;28;20048;-79
2023/10/25 09:48:20;;;;;;;8.25;4.53;;;10.40;99.90;;;;;;5056469;28;20539;-80
2023/10/25 09:51:30;;;;;;;12.85;6.30;;;10.40;99.90;;;;;;5059941;28;20067;-79
2023/10/25 09:54:13;;;;;;;10.93;5.40;;;10.60;99.90;;;;;;5054839;28;20128;-81
2023/10/25 09:56:39;;;;;;;9.85;5.80;;;10.60;99.90;;;;;;5057029;28;20465;-79
2023/10/25 09:59:08;;;;;;;11.65;5.22;;;10.60;99.90;;;;;;5056965;28;20102;-79
2023/10/25 10:01:34;;;;;;;9.90;4.32;;;10.70;99.90;;;;;;5058185;28;20078;-80
2023/10/25 10:04:26;;;;;;;12.40;4.75;;;11.00;99.90;;;;;;5061193;28;20039;-79
2023/10/25 10:07:19;;;;;;;9.68;4.35;;;11.10;99.90;;;;;;5074872;28;20063;-80
2023/10/25 10:09:54;;;;;;;9.45;3.85;;;11.40;99.90;;;;;;5073219;28;20544;-79
2023/10/25 10:12:20;;;;;;;9.85;4.30;;;11.30;99.90;;;;;;5084123;28;20122;-79
2023/10/25 10:14:45;;;;;;;14.27;5.30;;;11.50;99.90;;;;;;5089179;28;20116;-79
2023/10/25 10:17:19;;;;;;;9.25;4.57;;;11.50;99.90;;;;;;5073135;28;20465;-79
2023/10/25 10:19:47;;;;;;;8.10;4.10;;;11.60;99.90;;;;;;5090154;28;20049;-81
2023/10/25 10:22:16;;;;;;;10.15;4.10;;;11.70;99.90;;;;;;5061988;28;20480;-79
2023/10/25 10:24:44;;;;;;;11.85;5.18;;;11.80;99.90;;;;;;5061800;28;20395;-79
2023/10/25 10:27:11;;;;;;;10.23;4.97;;;11.90;99.90;;;;;;5051022;28;20035;-79
2023/10/25 10:29:39;;;;;;;9.38;4.65;;;11.80;99.90;;;;;;5058536;28;20479;-78
2023/10/25 10:32:06;;;;;;;11.02;5.63;;;11.80;99.90;;;;;;5052425;28;20097;-78
2023/10/25 10:34:57;;;;;;;10.82;5.07;;;11.90;99.90;;;;;;5080755;28;20391;-78
2023/10/25 10:37:25;;;;;;;12.20;4.95;;;12.00;99.90;;;;;;5076407;28;20040;-79
2023/10/25 10:39:56;;;;;;;10.05;4.30;;;12.00;99.90;;;;;;5052609;28;20052;-78
2023/10/25 10:42:28;;;;;;;12.68;4.85;;;12.00;99.90;;;;;;5096995;28;20040;-78
2023/10/25 10:44:57;;;;;;;12.05;5.53;;;12.00;99.90;;;;;;5087891;28;20091;-79
2023/10/25 10:47:47;;;;;;;10.50;5.80;;;12.00;99.90;;;;;;5075753;28;20036;-78
2023/10/25 10:50:19;;;;;;;12.25;5.97;;;12.00;99.90;;;;;;5075845;28;20082;-78
2023/10/25 10:52:46;;;;;;;;;;;12.00;99.90;;;;;;5074937;28;20085;-78
2023/10/25 10:55:17;;;;;;;12.57;6.05;;;12.00;99.90;;;;;;5058282;28;19922;-78
2023/10/25 10:57:43;;;;;;;14.55;6.47;;;12.00;99.90;;;;;;5060417;28;20059;-78
2023/10/25 11:00:10;;;;;;;12.25;6.13;;;12.10;99.90;;;;;;5049116;28;20033;-78
2023/10/25 11:02:37;;;;;;;13.40;5.70;;;12.10;99.90;;;;;;5062047;28;20037;-78
2023/10/25 11:05:06;;;;;;;11.20;4.75;;;12.20;99.90;;;;;;5054695;28;20389;-78
2023/10/25 11:07:32;;;;;;;8.98;5.38;;;12.20;99.90;;;;;;5072154;28;20068;-78
2023/10/25 11:09:58;;;;;;;7.85;4.57;;;12.20;99.90;;;;;;5055826;28;20068;-78
2023/10/25 11:12:24;;;;;;;11.10;5.78;;;12.30;99.90;;;;;;5043430;28;20041;-78
2023/10/25 11:14:50;;;;;;;14.18;6.07;;;12.20;99.90;;;;;;5049869;28;20041;-78
2023/10/25 11:17:16;;;;;;;10.25;5.93;;;12.10;99.90;;;;;;5071351;28;20044;-78
2023/10/25 11:19:47;;;;;;;10.57;6.20;;;12.00;99.90;;;;;;5054645;28;20173;-78
2023/10/25 11:22:13;;;;;;;9.93;4.90;;;12.00;99.90;;;;;;5035919;28;20529;-78
2023/10/25 11:24:40;;;;;;;10.40;5.95;;;12.00;99.90;;;;;;5045060;28;20508;-79
2023/10/25 11:27:05;;;;;;;10.25;5.47;;;12.00;99.90;;;;;;5054985;28;20040;-78
2023/10/25 11:29:34;;;;;;;9.98;5.00;;;12.00;99.90;;;;;;5071937;28;20043;-78
2023/10/25 11:32:06;;;;;;;8.88;5.22;;;12.00;99.90;;;;;;5064326;28;20032;-78
2023/10/25 11:34:33;;;;;;;12.48;5.22;;;12.00;99.90;;;;;;5052423;28;20040;-78
2023/10/25 11:37:02;;;;;;;11.27;4.90;;;12.00;99.90;;;;;;5051905;28;20049;-78
2023/10/25 11:39:32;;;;;;;6.95;3.90;;;12.10;99.90;;;;;;5035476;28;20048;-78
2023/10/25 11:42:01;;;;;;;8.20;4.03;;;12.10;99.90;;;;;;5037649;28;20045;-78
2023/10/25 11:44:27;;;;;;;9.20;4.53;;;12.10;99.90;;;;;;5052543;28;20505;-78
2023/10/25 11:46:58;;;;;;;7.47;4.10;;;12.10;99.90;;;;;;5054316;28;20516;-78
2023/10/25 11:49:24;;;;;;;7.90;3.97;;;12.00;99.90;;;;;;5068864;28;20052;-78
2023/10/25 11:51:54;;;;;;;8.27;3.83;;;11.90;99.90;;;;;;5043636;28;20260;-78
2023/10/25 11:54:19;;;;;;;10.13;4.55;;;12.00;99.90;;;;;;5064142;28;20037;-78
2023/10/25 11:56:45;;;;;;;9.48;4.13;;;12.00;99.90;;;;;;5045662;28;20405;-78
2023/10/25 11:59:11;;;;;;;7.45;3.85;;;12.00;99.90;;;;;;5068396;28;20059;-78
2023/10/25 12:01:36;;;;;;;9.95;4.30;;;12.00;99.90;;;;;;5054423;28;20036;-78
2023/10/25 12:04:02;;;;;;;9.25;4.53;;;12.00;99.90;;;;;;5055168;28;20041;-78
2023/10/25 12:06:28;;;;;;;12.88;5.00;;;11.90;99.90;;;;;;5053898;28;20040;-78
2023/10/25 12:08:53;;;;;;;8.57;4.32;;;11.90;99.90;;;;;;5071854;28;20063;-78
2023/10/25 12:11:20;;;;;;;10.88;4.53;;;11.80;99.90;;;;;;5071524;28;20531;-78
2023/10/25 12:13:46;;;;;;;8.77;3.80;;;11.80;99.90;;;;;;5053855;28;20048;-78
2023/10/25 12:16:11;;;;;;;8.77;4.20;;;11.80;99.90;;;;;;5052894;28;20045;-78
2023/10/25 12:18:37;;;;;;;9.60;4.75;;;11.80;99.90;;;;;;5053833;28;20033;-78
2023/10/25 12:21:04;;;;;;;9.18;4.90;;;11.80;99.90;;;;;;5050471;28;20561;-78
2023/10/25 12:23:31;;;;;;;8.10;4.45;;;11.80;99.90;;;;;;5058956;28;20388;-78
2023/10/25 12:25:56;;;;;;;8.98;4.68;;;11.80;99.90;;;;;;5064885;28;20051;-78
2023/10/25 12:28:23;;;;;;;8.50;4.35;;;11.80;99.90;;;;;;5058720;28;20032;-78
2023/10/25 12:30:49;;;;;;;9.50;4.35;;;11.70;99.90;;;;;;5058454;28;20040;-78
2023/10/25 12:33:15;;;;;;;8.35;3.92;;;11.70;99.90;;;;;;5075069;28;20500;-78
2023/10/25 12:35:42;;;;;;;11.57;4.85;;;11.80;99.90;;;;;;5055866;28;20040;-78
2023/10/25 12:38:07;;;;;;;10.07;4.13;;;11.80;99.90;;;;;;5069790;28;20039;-78
2023/10/25 12:40:33;;;;;;;7.30;3.83;;;11.70;99.90;;;;;;5058544;28;20127;-78
2023/10/25 12:42:59;;;;;;;8.20;3.75;;;11.70;99.90;;;;;;5074846;28;20040;-78
2023/10/25 12:45:25;;;;;;;10.35;3.80;;;11.70;99.90;;;;;;5049141;28;20048;-78
2023/10/25 12:47:51;;;;;;;7.57;3.70;;;11.70;99.90;;;;;;5050849;28;20033;-78